RPC2711 RPMY-RPVE
Flight info
| Callsign | RPC2711 |
|---|---|
| Flight time | 1h 16m |
| Altitude | 24000 |
| Route | LIRY7A LIRYX B473 ROX TR15 KLO KLO7A |
| Aircraft | PC12/L-SDFGRY/LB1 |
Departure
| Time | 2026-05-08 07:18 |
|---|---|
| Airport | Laguindingan International Airport (RPMY) |
Arrival
| Time | 2026-05-08 08:35 |
|---|---|
| Airport | Godofredo P. Ramos Airport (RPVE) |
| Time | Latitude | Longitude | Altitude | Speed | Heading |
|---|---|---|---|---|---|
| 2026-05-08 07:01 | 8.60904 | 124.45720 | 178 ft | 0 kts | 176° |
| 2026-05-08 07:14 | 8.60897 | 124.45726 | 178 ft | 3 kts | 101° |
| 2026-05-08 07:14 | 8.60956 | 124.45730 | 175 ft | 17 kts | 352° |
| 2026-05-08 07:14 | 8.60991 | 124.45790 | 174 ft | 12 kts | 86° |
| 2026-05-08 07:14 | 8.60999 | 124.45883 | 176 ft | 14 kts | 85° |
| 2026-05-08 07:15 | 8.61032 | 124.45974 | 177 ft | 15 kts | 17° |
| 2026-05-08 07:15 | 8.61143 | 124.45969 | 173 ft | 17 kts | 355° |
| 2026-05-08 07:15 | 8.61244 | 124.45992 | 172 ft | 16 kts | 72° |
| 2026-05-08 07:15 | 8.61254 | 124.46103 | 173 ft | 16 kts | 85° |
| 2026-05-08 07:16 | 8.61263 | 124.46216 | 174 ft | 17 kts | 85° |
| 2026-05-08 07:16 | 8.61274 | 124.46346 | 171 ft | 21 kts | 86° |
| 2026-05-08 07:16 | 8.61283 | 124.46484 | 168 ft | 13 kts | 89° |
| 2026-05-08 07:16 | 8.61260 | 124.46539 | 167 ft | 11 kts | 118° |
| 2026-05-08 07:17 | 8.61288 | 124.46585 | 167 ft | 11 kts | 315° |
| 2026-05-08 07:17 | 8.61284 | 124.46486 | 168 ft | 29 kts | 264° |
| 2026-05-08 07:17 | 8.61259 | 124.46141 | 173 ft | 71 kts | 263° |
| 2026-05-08 07:17 | 8.61213 | 124.45551 | 186 ft | 96 kts | 272° |
| 2026-05-08 07:18 | 8.61161 | 124.44830 | 376 ft | 106 kts | 270° |
| 2026-05-08 07:18 | 8.61072 | 124.44048 | 592 ft | 121 kts | 270° |
| 2026-05-08 07:18 | 8.60998 | 124.43141 | 934 ft | 140 kts | 272° |
| 2026-05-08 07:18 | 8.61099 | 124.42145 | 1268 ft | 148 kts | 301° |
| 2026-05-08 07:19 | 8.61834 | 124.41445 | 1669 ft | 151 kts | 337° |
| 2026-05-08 07:19 | 8.62835 | 124.41067 | 2031 ft | 155 kts | 341° |
| 2026-05-08 07:19 | 8.63875 | 124.40681 | 2409 ft | 164 kts | 341° |
| 2026-05-08 07:19 | 8.64981 | 124.40268 | 2767 ft | 175 kts | 341° |
| 2026-05-08 07:20 | 8.66150 | 124.39819 | 3128 ft | 182 kts | 340° |
| 2026-05-08 07:20 | 8.67336 | 124.39360 | 3478 ft | 183 kts | 340° |
| 2026-05-08 07:20 | 8.68517 | 124.38901 | 3830 ft | 183 kts | 340° |
| 2026-05-08 07:20 | 8.69722 | 124.38434 | 4187 ft | 184 kts | 341° |
| 2026-05-08 07:21 | 8.70905 | 124.37975 | 4557 ft | 185 kts | 340° |
| 2026-05-08 07:21 | 8.72106 | 124.37510 | 4905 ft | 185 kts | 342° |
| 2026-05-08 07:21 | 8.73307 | 124.37043 | 5262 ft | 185 kts | 342° |
| 2026-05-08 07:21 | 8.74503 | 124.36579 | 5622 ft | 184 kts | 342° |
| 2026-05-08 07:22 | 8.75702 | 124.36114 | 5987 ft | 184 kts | 342° |
| 2026-05-08 07:22 | 8.76902 | 124.35649 | 6341 ft | 185 kts | 342° |
| 2026-05-08 07:22 | 8.78102 | 124.35183 | 6682 ft | 185 kts | 342° |
| 2026-05-08 07:22 | 8.79304 | 124.34716 | 7032 ft | 185 kts | 342° |
| 2026-05-08 07:23 | 8.80501 | 124.34252 | 7380 ft | 184 kts | 343° |
| 2026-05-08 07:23 | 8.81698 | 124.33787 | 7736 ft | 185 kts | 342° |
| 2026-05-08 07:23 | 8.82909 | 124.33318 | 8098 ft | 187 kts | 342° |
| 2026-05-08 07:23 | 8.84130 | 124.32844 | 8462 ft | 189 kts | 343° |
| 2026-05-08 07:24 | 8.85359 | 124.32367 | 8829 ft | 190 kts | 343° |
| 2026-05-08 07:24 | 8.86594 | 124.31888 | 9199 ft | 191 kts | 343° |
| 2026-05-08 07:24 | 8.87838 | 124.31405 | 9581 ft | 191 kts | 343° |
| 2026-05-08 07:24 | 8.89086 | 124.30920 | 9928 ft | 192 kts | 343° |
| 2026-05-08 07:25 | 8.90332 | 124.30436 | 10270 ft | 192 kts | 343° |
| 2026-05-08 07:25 | 8.91563 | 124.29958 | 10611 ft | 192 kts | 343° |
| 2026-05-08 07:25 | 8.94061 | 124.28988 | 11315 ft | 192 kts | 343° |
| 2026-05-08 07:26 | 8.95307 | 124.28503 | 11673 ft | 192 kts | 343° |
| 2026-05-08 07:26 | 8.96551 | 124.28021 | 12032 ft | 192 kts | 343° |
| 2026-05-08 07:26 | 8.97798 | 124.27536 | 12400 ft | 192 kts | 343° |
| 2026-05-08 07:26 | 8.99046 | 124.27051 | 12771 ft | 191 kts | 343° |
| 2026-05-08 07:27 | 9.00287 | 124.26569 | 13144 ft | 191 kts | 343° |
| 2026-05-08 07:27 | 9.01529 | 124.26087 | 13523 ft | 191 kts | 343° |
| 2026-05-08 07:27 | 9.02757 | 124.25577 | 13858 ft | 192 kts | 335° |
| 2026-05-08 07:27 | 9.03904 | 124.24897 | 14199 ft | 191 kts | 334° |
| 2026-05-08 07:28 | 9.05057 | 124.24230 | 14540 ft | 191 kts | 335° |
| 2026-05-08 07:28 | 9.06210 | 124.23568 | 14880 ft | 191 kts | 335° |
| 2026-05-08 07:28 | 9.07346 | 124.22911 | 15222 ft | 190 kts | 335° |
| 2026-05-08 07:28 | 9.08507 | 124.22237 | 15581 ft | 190 kts | 335° |
| 2026-05-08 07:29 | 9.09639 | 124.21581 | 15933 ft | 190 kts | 335° |
| 2026-05-08 07:29 | 9.10783 | 124.20918 | 16292 ft | 189 kts | 335° |
| 2026-05-08 07:29 | 9.11923 | 124.20256 | 16657 ft | 189 kts | 335° |
| 2026-05-08 07:29 | 9.13062 | 124.19595 | 17026 ft | 188 kts | 335° |
| 2026-05-08 07:30 | 9.14204 | 124.18932 | 17402 ft | 188 kts | 335° |
| 2026-05-08 07:30 | 9.15333 | 124.18277 | 17776 ft | 187 kts | 335° |
| 2026-05-08 07:30 | 9.16446 | 124.17631 | 18142 ft | 186 kts | 335° |
| 2026-05-08 07:30 | 9.17571 | 124.16978 | 18472 ft | 186 kts | 335° |
| 2026-05-08 07:31 | 9.18692 | 124.16327 | 18804 ft | 185 kts | 335° |
| 2026-05-08 07:31 | 9.19806 | 124.15680 | 19135 ft | 184 kts | 335° |
| 2026-05-08 07:31 | 9.20918 | 124.15034 | 19477 ft | 184 kts | 335° |
| 2026-05-08 07:31 | 9.22023 | 124.14393 | 19810 ft | 183 kts | 335° |
| 2026-05-08 07:32 | 9.23123 | 124.13754 | 20164 ft | 181 kts | 335° |
| 2026-05-08 07:32 | 9.24212 | 124.13121 | 20514 ft | 180 kts | 335° |
| 2026-05-08 07:32 | 9.25292 | 124.12494 | 20867 ft | 178 kts | 335° |
| 2026-05-08 07:32 | 9.26360 | 124.11873 | 21224 ft | 176 kts | 335° |
| 2026-05-08 07:33 | 9.27419 | 124.11258 | 21589 ft | 175 kts | 335° |
| 2026-05-08 07:33 | 9.28453 | 124.10657 | 21953 ft | 173 kts | 336° |
| 2026-05-08 07:33 | 9.29489 | 124.10055 | 22326 ft | 171 kts | 336° |
| 2026-05-08 07:33 | 9.30513 | 124.09460 | 22700 ft | 168 kts | 336° |
| 2026-05-08 07:34 | 9.31521 | 124.08874 | 23081 ft | 166 kts | 336° |
| 2026-05-08 07:34 | 9.32516 | 124.08295 | 23449 ft | 163 kts | 336° |
| 2026-05-08 07:34 | 9.33495 | 124.07726 | 23756 ft | 162 kts | 336° |
| 2026-05-08 07:34 | 9.34534 | 124.07129 | 23793 ft | 183 kts | 336° |
| 2026-05-08 07:35 | 9.35690 | 124.06465 | 23802 ft | 198 kts | 335° |
| 2026-05-08 07:35 | 9.36920 | 124.05750 | 23804 ft | 209 kts | 335° |
| 2026-05-08 07:35 | 9.38210 | 124.04998 | 23804 ft | 218 kts | 334° |
| 2026-05-08 07:35 | 9.39553 | 124.04224 | 23806 ft | 226 kts | 334° |
| 2026-05-08 07:36 | 9.40938 | 124.03427 | 23805 ft | 232 kts | 334° |
| 2026-05-08 07:36 | 9.42358 | 124.02608 | 23800 ft | 237 kts | 334° |
| 2026-05-08 07:36 | 9.43805 | 124.01772 | 23802 ft | 241 kts | 333° |
| 2026-05-08 07:36 | 9.45272 | 124.00925 | 23801 ft | 244 kts | 334° |
| 2026-05-08 07:37 | 9.46755 | 124.00070 | 23805 ft | 247 kts | 333° |
| 2026-05-08 07:37 | 9.48253 | 123.99206 | 23808 ft | 248 kts | 333° |
| 2026-05-08 07:37 | 9.49740 | 123.98343 | 23805 ft | 250 kts | 333° |
| 2026-05-08 07:37 | 9.51253 | 123.97462 | 23806 ft | 251 kts | 333° |
| 2026-05-08 07:38 | 9.52774 | 123.96579 | 23805 ft | 252 kts | 333° |
| 2026-05-08 07:38 | 9.54296 | 123.95696 | 23803 ft | 253 kts | 333° |
| 2026-05-08 07:38 | 9.55829 | 123.94806 | 23805 ft | 253 kts | 333° |
| 2026-05-08 07:38 | 9.57342 | 123.93927 | 23804 ft | 254 kts | 333° |
| 2026-05-08 07:39 | 9.58878 | 123.93035 | 23804 ft | 254 kts | 333° |
| 2026-05-08 07:39 | 9.60413 | 123.92143 | 23804 ft | 255 kts | 333° |
| 2026-05-08 07:39 | 9.61952 | 123.91250 | 23804 ft | 255 kts | 333° |
| 2026-05-08 07:39 | 9.63493 | 123.90355 | 23807 ft | 255 kts | 333° |
| 2026-05-08 07:40 | 9.65036 | 123.89458 | 23804 ft | 255 kts | 333° |
| 2026-05-08 07:40 | 9.66575 | 123.88564 | 23805 ft | 256 kts | 333° |
| 2026-05-08 07:40 | 9.68124 | 123.87663 | 23804 ft | 256 kts | 333° |
| 2026-05-08 07:40 | 9.69670 | 123.86765 | 23806 ft | 256 kts | 333° |
| 2026-05-08 07:41 | 9.71214 | 123.85867 | 23802 ft | 256 kts | 333° |
| 2026-05-08 07:41 | 9.72762 | 123.84967 | 23806 ft | 256 kts | 333° |
| 2026-05-08 07:41 | 9.74313 | 123.84066 | 23808 ft | 259 kts | 333° |
| 2026-05-08 07:41 | 9.75886 | 123.83152 | 23805 ft | 262 kts | 333° |
| 2026-05-08 07:42 | 9.77448 | 123.82245 | 23807 ft | 264 kts | 333° |
| 2026-05-08 07:42 | 9.79051 | 123.81313 | 23804 ft | 266 kts | 333° |
| 2026-05-08 07:42 | 9.80663 | 123.80375 | 23808 ft | 268 kts | 333° |
| 2026-05-08 07:42 | 9.82291 | 123.79428 | 23812 ft | 271 kts | 333° |
| 2026-05-08 07:43 | 9.83931 | 123.78474 | 23813 ft | 273 kts | 333° |
| 2026-05-08 07:43 | 9.85580 | 123.77515 | 23814 ft | 274 kts | 333° |
| 2026-05-08 07:43 | 9.87237 | 123.76551 | 23819 ft | 275 kts | 333° |
| 2026-05-08 07:43 | 9.88900 | 123.75583 | 23818 ft | 276 kts | 332° |
| 2026-05-08 07:44 | 9.90566 | 123.74613 | 23818 ft | 276 kts | 332° |
| 2026-05-08 07:44 | 9.92236 | 123.73639 | 23825 ft | 276 kts | 332° |
| 2026-05-08 07:44 | 9.93903 | 123.72666 | 23823 ft | 277 kts | 332° |
| 2026-05-08 07:44 | 9.95573 | 123.71691 | 23827 ft | 277 kts | 332° |
| 2026-05-08 07:45 | 9.97244 | 123.70716 | 23828 ft | 277 kts | 332° |
| 2026-05-08 07:45 | 9.98890 | 123.69756 | 23826 ft | 277 kts | 332° |
| 2026-05-08 07:45 | 10.00560 | 123.68781 | 23825 ft | 277 kts | 332° |
| 2026-05-08 07:45 | 10.02228 | 123.67808 | 23828 ft | 276 kts | 332° |
| 2026-05-08 07:46 | 10.03895 | 123.66835 | 23829 ft | 276 kts | 332° |
| 2026-05-08 07:46 | 10.05562 | 123.65862 | 23828 ft | 276 kts | 333° |
| 2026-05-08 07:46 | 10.07228 | 123.64890 | 23828 ft | 276 kts | 332° |
| 2026-05-08 07:46 | 10.08893 | 123.63917 | 23830 ft | 276 kts | 333° |
| 2026-05-08 07:47 | 10.10562 | 123.62943 | 23830 ft | 277 kts | 333° |
| 2026-05-08 07:47 | 10.12232 | 123.61968 | 23829 ft | 277 kts | 332° |
| 2026-05-08 07:47 | 10.13901 | 123.60993 | 23828 ft | 277 kts | 333° |
| 2026-05-08 07:47 | 10.15571 | 123.60018 | 23829 ft | 277 kts | 333° |
| 2026-05-08 07:48 | 10.17241 | 123.59041 | 23830 ft | 277 kts | 332° |
| 2026-05-08 07:48 | 10.18914 | 123.58064 | 23829 ft | 277 kts | 332° |
| 2026-05-08 07:48 | 10.20586 | 123.57087 | 23830 ft | 277 kts | 332° |
| 2026-05-08 07:48 | 10.22257 | 123.56110 | 23831 ft | 277 kts | 332° |
| 2026-05-08 07:49 | 10.23927 | 123.55134 | 23830 ft | 277 kts | 332° |
| 2026-05-08 07:49 | 10.25598 | 123.54158 | 23830 ft | 277 kts | 332° |
| 2026-05-08 07:49 | 10.27262 | 123.53184 | 23830 ft | 276 kts | 332° |
| 2026-05-08 07:49 | 10.28931 | 123.52208 | 23829 ft | 276 kts | 332° |
| 2026-05-08 07:50 | 10.30595 | 123.51238 | 23828 ft | 276 kts | 332° |
| 2026-05-08 07:50 | 10.32260 | 123.50267 | 23830 ft | 276 kts | 332° |
| 2026-05-08 07:50 | 10.33921 | 123.49298 | 23831 ft | 276 kts | 332° |
| 2026-05-08 07:50 | 10.35587 | 123.48327 | 23831 ft | 275 kts | 332° |
| 2026-05-08 07:51 | 10.37225 | 123.47370 | 23833 ft | 275 kts | 332° |
| 2026-05-08 07:51 | 10.38886 | 123.46400 | 23832 ft | 275 kts | 332° |
| 2026-05-08 07:51 | 10.40549 | 123.45429 | 23832 ft | 275 kts | 332° |
| 2026-05-08 07:51 | 10.42208 | 123.44461 | 23832 ft | 275 kts | 332° |
| 2026-05-08 07:52 | 10.43870 | 123.43491 | 23832 ft | 275 kts | 332° |
| 2026-05-08 07:52 | 10.45526 | 123.42524 | 23836 ft | 275 kts | 332° |
| 2026-05-08 07:52 | 10.47186 | 123.41554 | 23835 ft | 275 kts | 332° |
| 2026-05-08 07:52 | 10.48844 | 123.40587 | 23836 ft | 275 kts | 332° |
| 2026-05-08 07:53 | 10.50507 | 123.39616 | 23833 ft | 275 kts | 332° |
| 2026-05-08 07:53 | 10.52169 | 123.38645 | 23832 ft | 275 kts | 332° |
| 2026-05-08 07:53 | 10.53828 | 123.37674 | 23832 ft | 275 kts | 332° |
| 2026-05-08 07:53 | 10.55482 | 123.36707 | 23836 ft | 274 kts | 332° |
| 2026-05-08 07:54 | 10.57136 | 123.35741 | 23832 ft | 275 kts | 332° |
| 2026-05-08 07:54 | 10.58774 | 123.34784 | 23832 ft | 275 kts | 332° |
| 2026-05-08 07:54 | 10.60431 | 123.33815 | 23833 ft | 275 kts | 332° |
| 2026-05-08 07:54 | 10.62091 | 123.32844 | 23831 ft | 275 kts | 333° |
| 2026-05-08 07:55 | 10.63753 | 123.31873 | 23830 ft | 275 kts | 332° |
| 2026-05-08 07:55 | 10.65417 | 123.30901 | 23833 ft | 276 kts | 332° |
| 2026-05-08 07:55 | 10.67081 | 123.29928 | 23829 ft | 276 kts | 332° |
| 2026-05-08 07:55 | 10.68739 | 123.28960 | 23830 ft | 276 kts | 333° |
| 2026-05-08 07:56 | 10.70415 | 123.27981 | 23830 ft | 276 kts | 332° |
| 2026-05-08 07:56 | 10.72079 | 123.27008 | 23827 ft | 276 kts | 332° |
| 2026-05-08 07:56 | 10.73746 | 123.26033 | 23825 ft | 276 kts | 333° |
| 2026-05-08 07:56 | 10.75411 | 123.25059 | 23824 ft | 276 kts | 332° |
| 2026-05-08 07:57 | 10.77050 | 123.24098 | 23825 ft | 275 kts | 333° |
| 2026-05-08 07:57 | 10.78710 | 123.23124 | 23823 ft | 275 kts | 332° |
| 2026-05-08 07:57 | 10.80367 | 123.22153 | 23822 ft | 274 kts | 333° |
| 2026-05-08 07:57 | 10.82013 | 123.21188 | 23821 ft | 273 kts | 333° |
| 2026-05-08 07:58 | 10.83660 | 123.20222 | 23823 ft | 272 kts | 332° |
| 2026-05-08 07:58 | 10.84749 | 123.19584 | 23820 ft | 272 kts | 333° |
| 2026-05-08 07:58 | 10.86947 | 123.18295 | 23820 ft | 273 kts | 332° |
| 2026-05-08 07:58 | 10.88038 | 123.17655 | 23820 ft | 273 kts | 333° |
| 2026-05-08 07:59 | 10.90209 | 123.16382 | 23817 ft | 272 kts | 333° |
| 2026-05-08 07:59 | 10.91849 | 123.15419 | 23819 ft | 272 kts | 332° |
| 2026-05-08 07:59 | 10.92958 | 123.14768 | 23816 ft | 272 kts | 333° |
| 2026-05-08 07:59 | 10.95128 | 123.13496 | 23817 ft | 272 kts | 333° |
| 2026-05-08 08:00 | 10.96215 | 123.12857 | 23820 ft | 272 kts | 332° |
| 2026-05-08 08:00 | 10.97849 | 123.11898 | 23818 ft | 271 kts | 333° |
| 2026-05-08 08:00 | 10.99481 | 123.10940 | 23820 ft | 271 kts | 333° |
| 2026-05-08 08:00 | 11.01107 | 123.09985 | 23819 ft | 270 kts | 333° |
| 2026-05-08 08:01 | 11.02736 | 123.09030 | 23819 ft | 270 kts | 332° |
| 2026-05-08 08:01 | 11.04367 | 123.08072 | 23821 ft | 269 kts | 333° |
| 2026-05-08 08:01 | 11.05989 | 123.07119 | 23819 ft | 269 kts | 333° |
| 2026-05-08 08:01 | 11.07610 | 123.06167 | 23818 ft | 269 kts | 333° |
| 2026-05-08 08:02 | 11.09235 | 123.05213 | 23818 ft | 270 kts | 332° |
| 2026-05-08 08:02 | 11.10857 | 123.04260 | 23822 ft | 269 kts | 334° |
| 2026-05-08 08:02 | 11.12477 | 123.03308 | 23818 ft | 269 kts | 332° |
| 2026-05-08 08:02 | 11.14098 | 123.02356 | 23819 ft | 269 kts | 332° |
| 2026-05-08 08:03 | 11.15724 | 123.01400 | 23821 ft | 269 kts | 332° |
| 2026-05-08 08:03 | 11.17350 | 123.00444 | 23820 ft | 270 kts | 332° |
| 2026-05-08 08:03 | 11.18960 | 122.99498 | 23821 ft | 271 kts | 332° |
| 2026-05-08 08:03 | 11.20592 | 122.98539 | 23822 ft | 271 kts | 332° |
| 2026-05-08 08:04 | 11.22223 | 122.97580 | 23822 ft | 271 kts | 332° |
| 2026-05-08 08:04 | 11.23858 | 122.96618 | 23818 ft | 272 kts | 332° |
| 2026-05-08 08:04 | 11.25497 | 122.95654 | 23816 ft | 272 kts | 333° |
| 2026-05-08 08:04 | 11.27137 | 122.94690 | 23776 ft | 274 kts | 333° |
| 2026-05-08 08:05 | 11.28813 | 122.93705 | 23532 ft | 282 kts | 333° |
| 2026-05-08 08:05 | 11.30524 | 122.92699 | 23248 ft | 286 kts | 333° |
| 2026-05-08 08:05 | 11.32264 | 122.91674 | 22954 ft | 290 kts | 332° |
| 2026-05-08 08:05 | 11.34025 | 122.90637 | 22649 ft | 294 kts | 332° |
| 2026-05-08 08:06 | 11.35802 | 122.89590 | 22346 ft | 296 kts | 332° |
| 2026-05-08 08:06 | 11.37595 | 122.88535 | 22046 ft | 298 kts | 332° |
| 2026-05-08 08:06 | 11.39391 | 122.87477 | 21824 ft | 296 kts | 332° |
| 2026-05-08 08:06 | 11.41151 | 122.86439 | 21826 ft | 287 kts | 332° |
| 2026-05-08 08:07 | 11.42856 | 122.85433 | 21820 ft | 279 kts | 332° |
| 2026-05-08 08:07 | 11.44501 | 122.84465 | 21819 ft | 273 kts | 332° |
| 2026-05-08 08:07 | 11.46133 | 122.83503 | 21809 ft | 269 kts | 333° |
| 2026-05-08 08:07 | 11.47747 | 122.82553 | 21816 ft | 266 kts | 332° |
| 2026-05-08 08:08 | 11.49341 | 122.81613 | 21812 ft | 263 kts | 332° |
| 2026-05-08 08:08 | 11.50924 | 122.80680 | 21816 ft | 262 kts | 332° |
| 2026-05-08 08:08 | 11.52498 | 122.79753 | 21814 ft | 260 kts | 333° |
| 2026-05-08 08:08 | 11.54063 | 122.78830 | 21819 ft | 260 kts | 333° |
| 2026-05-08 08:09 | 11.55627 | 122.77907 | 21821 ft | 259 kts | 333° |
| 2026-05-08 08:09 | 11.57189 | 122.76986 | 21819 ft | 258 kts | 333° |
| 2026-05-08 08:09 | 11.58723 | 122.75991 | 21578 ft | 268 kts | 321° |
| 2026-05-08 08:09 | 11.59856 | 122.74441 | 21306 ft | 280 kts | 296° |
| 2026-05-08 08:10 | 11.60425 | 122.72520 | 21030 ft | 286 kts | 284° |
| 2026-05-08 08:10 | 11.60865 | 122.70524 | 20748 ft | 291 kts | 283° |
| 2026-05-08 08:10 | 11.61314 | 122.68503 | 20464 ft | 293 kts | 284° |
| 2026-05-08 08:10 | 11.61787 | 122.66501 | 20189 ft | 295 kts | 285° |
| 2026-05-08 08:11 | 11.62273 | 122.64461 | 19907 ft | 296 kts | 284° |
| 2026-05-08 08:11 | 11.62749 | 122.62421 | 19636 ft | 297 kts | 284° |
| 2026-05-08 08:11 | 11.63226 | 122.60361 | 19356 ft | 297 kts | 284° |
| 2026-05-08 08:11 | 11.63703 | 122.58316 | 19088 ft | 297 kts | 284° |
| 2026-05-08 08:12 | 11.64182 | 122.56263 | 18817 ft | 297 kts | 285° |
| 2026-05-08 08:12 | 11.64659 | 122.54217 | 18551 ft | 296 kts | 285° |
| 2026-05-08 08:12 | 11.65134 | 122.52173 | 18289 ft | 296 kts | 285° |
| 2026-05-08 08:12 | 11.65608 | 122.50135 | 18008 ft | 295 kts | 285° |
| 2026-05-08 08:13 | 11.66083 | 122.48093 | 17699 ft | 295 kts | 285° |
| 2026-05-08 08:13 | 11.66555 | 122.46064 | 17399 ft | 294 kts | 285° |
| 2026-05-08 08:13 | 11.67020 | 122.44065 | 17101 ft | 293 kts | 285° |
| 2026-05-08 08:13 | 11.67489 | 122.42046 | 16806 ft | 292 kts | 285° |
| 2026-05-08 08:14 | 11.67957 | 122.40028 | 16511 ft | 291 kts | 285° |
| 2026-05-08 08:14 | 11.68619 | 122.38101 | 16206 ft | 286 kts | 302° |
| 2026-05-08 08:14 | 11.69783 | 122.36471 | 15923 ft | 283 kts | 311° |
| 2026-05-08 08:14 | 11.71025 | 122.34916 | 15641 ft | 282 kts | 312° |
| 2026-05-08 08:15 | 11.72264 | 122.33362 | 15351 ft | 282 kts | 312° |
| 2026-05-08 08:15 | 11.73488 | 122.31801 | 15073 ft | 281 kts | 311° |
| 2026-05-08 08:15 | 11.74688 | 122.30265 | 14800 ft | 280 kts | 311° |
| 2026-05-08 08:15 | 11.75906 | 122.28716 | 14518 ft | 279 kts | 312° |
| 2026-05-08 08:16 | 11.77120 | 122.27173 | 14249 ft | 278 kts | 311° |
| 2026-05-08 08:16 | 11.78328 | 122.25635 | 13978 ft | 277 kts | 311° |
| 2026-05-08 08:16 | 11.79534 | 122.24098 | 13710 ft | 277 kts | 311° |
| 2026-05-08 08:16 | 11.80735 | 122.22569 | 13415 ft | 276 kts | 312° |
| 2026-05-08 08:17 | 11.81932 | 122.21044 | 13112 ft | 275 kts | 312° |
| 2026-05-08 08:17 | 11.83125 | 122.19524 | 12814 ft | 274 kts | 312° |
| 2026-05-08 08:17 | 11.84315 | 122.18007 | 12514 ft | 273 kts | 312° |
| 2026-05-08 08:17 | 11.85500 | 122.16497 | 12213 ft | 272 kts | 312° |
| 2026-05-08 08:18 | 11.86687 | 122.14985 | 11934 ft | 272 kts | 312° |
| 2026-05-08 08:18 | 11.87868 | 122.13479 | 11643 ft | 272 kts | 312° |
| 2026-05-08 08:18 | 11.89048 | 122.11975 | 11352 ft | 271 kts | 312° |
| 2026-05-08 08:18 | 11.90210 | 122.10494 | 11071 ft | 270 kts | 312° |
| 2026-05-08 08:19 | 11.91385 | 122.08995 | 10792 ft | 270 kts | 312° |
| 2026-05-08 08:19 | 11.92558 | 122.07498 | 10512 ft | 270 kts | 312° |
| 2026-05-08 08:19 | 11.93731 | 122.06002 | 10237 ft | 269 kts | 312° |
| 2026-05-08 08:19 | 11.94902 | 122.04508 | 9966 ft | 269 kts | 313° |
| 2026-05-08 08:20 | 11.98521 | 121.99889 | 9057 ft | 269 kts | 312° |
| 2026-05-08 08:20 | 11.99690 | 121.98396 | 8761 ft | 269 kts | 312° |
| 2026-05-08 08:21 | 12.00857 | 121.96906 | 8466 ft | 269 kts | 312° |
| 2026-05-08 08:21 | 12.02025 | 121.95413 | 8171 ft | 268 kts | 312° |
| 2026-05-08 08:21 | 12.02981 | 121.93780 | 7879 ft | 272 kts | 292° |
| 2026-05-08 08:21 | 12.03258 | 121.91869 | 7594 ft | 276 kts | 268° |
| 2026-05-08 08:22 | 12.02785 | 121.89979 | 7306 ft | 276 kts | 244° |
| 2026-05-08 08:22 | 12.01762 | 121.88340 | 7027 ft | 271 kts | 234° |
| 2026-05-08 08:22 | 12.00682 | 121.86798 | 6749 ft | 262 kts | 233° |
| 2026-05-08 08:22 | 11.99633 | 121.85296 | 6461 ft | 257 kts | 233° |
| 2026-05-08 08:23 | 11.98615 | 121.83812 | 6190 ft | 253 kts | 233° |
| 2026-05-08 08:23 | 11.97613 | 121.82347 | 5897 ft | 250 kts | 233° |
| 2026-05-08 08:23 | 11.96619 | 121.80901 | 5605 ft | 248 kts | 233° |
| 2026-05-08 08:23 | 11.95632 | 121.79468 | 5318 ft | 246 kts | 233° |
| 2026-05-08 08:24 | 11.94650 | 121.78040 | 5029 ft | 245 kts | 233° |
| 2026-05-08 08:24 | 11.93680 | 121.76627 | 4742 ft | 236 kts | 232° |
| 2026-05-08 08:24 | 11.92771 | 121.75305 | 4444 ft | 220 kts | 230° |
| 2026-05-08 08:24 | 11.91695 | 121.74298 | 4153 ft | 203 kts | 204° |
| 2026-05-08 08:25 | 11.90428 | 121.73881 | 3884 ft | 187 kts | 179° |
| 2026-05-08 08:25 | 11.89218 | 121.73983 | 3794 ft | 162 kts | 156° |
| 2026-05-08 08:25 | 11.88221 | 121.74429 | 3799 ft | 159 kts | 144° |
| 2026-05-08 08:25 | 11.87234 | 121.74940 | 3793 ft | 155 kts | 146° |
| 2026-05-08 08:26 | 11.86297 | 121.75413 | 3789 ft | 144 kts | 146° |
| 2026-05-08 08:26 | 11.85439 | 121.75852 | 3780 ft | 132 kts | 144° |
| 2026-05-08 08:26 | 11.84652 | 121.76260 | 3777 ft | 125 kts | 144° |
| 2026-05-08 08:26 | 11.83914 | 121.76675 | 3776 ft | 116 kts | 132° |
| 2026-05-08 08:27 | 11.83561 | 121.77390 | 3572 ft | 118 kts | 89° |
| 2026-05-08 08:27 | 11.83806 | 121.78199 | 3354 ft | 123 kts | 63° |
| 2026-05-08 08:27 | 11.84195 | 121.78947 | 3118 ft | 114 kts | 64° |
| 2026-05-08 08:27 | 11.84537 | 121.79622 | 2875 ft | 100 kts | 64° |
| 2026-05-08 08:28 | 11.84855 | 121.80252 | 2636 ft | 102 kts | 65° |
| 2026-05-08 08:28 | 11.85175 | 121.80889 | 2398 ft | 101 kts | 66° |
| 2026-05-08 08:28 | 11.85489 | 121.81514 | 2294 ft | 93 kts | 64° |
| 2026-05-08 08:28 | 11.85773 | 121.82076 | 2287 ft | 86 kts | 66° |
| 2026-05-08 08:29 | 11.86041 | 121.82611 | 2283 ft | 83 kts | 64° |
| 2026-05-08 08:29 | 11.86302 | 121.83131 | 2284 ft | 83 kts | 64° |
| 2026-05-08 08:29 | 11.86569 | 121.83662 | 2284 ft | 87 kts | 64° |
| 2026-05-08 08:29 | 11.86848 | 121.84218 | 2290 ft | 90 kts | 64° |
| 2026-05-08 08:30 | 11.87133 | 121.84789 | 2260 ft | 91 kts | 64° |
| 2026-05-08 08:30 | 11.87417 | 121.85356 | 2129 ft | 88 kts | 64° |
| 2026-05-08 08:30 | 11.87977 | 121.86470 | 1894 ft | 93 kts | 63° |
| 2026-05-08 08:31 | 11.88272 | 121.87057 | 1781 ft | 94 kts | 61° |
| 2026-05-08 08:31 | 11.88575 | 121.87662 | 1660 ft | 97 kts | 62° |
| 2026-05-08 08:31 | 11.88883 | 121.88276 | 1534 ft | 97 kts | 59° |
| 2026-05-08 08:31 | 11.89193 | 121.88892 | 1421 ft | 97 kts | 64° |
| 2026-05-08 08:32 | 11.89500 | 121.89503 | 1277 ft | 95 kts | 63° |
| 2026-05-08 08:32 | 11.89794 | 121.90088 | 1131 ft | 92 kts | 62° |
| 2026-05-08 08:32 | 11.90094 | 121.90684 | 1018 ft | 95 kts | 65° |
| 2026-05-08 08:32 | 11.90404 | 121.91300 | 855 ft | 98 kts | 63° |
| 2026-05-08 08:33 | 11.90727 | 121.91905 | 715 ft | 97 kts | 63° |
| 2026-05-08 08:33 | 11.90927 | 121.92304 | 637 ft | 93 kts | 64° |
| 2026-05-08 08:33 | 11.91215 | 121.92864 | 592 ft | 85 kts | 65° |
| 2026-05-08 08:33 | 11.91476 | 121.93403 | 420 ft | 84 kts | 65° |
| 2026-05-08 08:34 | 11.91739 | 121.93939 | 373 ft | 86 kts | 69° |
| 2026-05-08 08:34 | 11.92091 | 121.94678 | 142 ft | 84 kts | 63° |
| 2026-05-08 08:34 | 11.92266 | 121.95024 | 40 ft | 79 kts | 64° |
| 2026-05-08 08:34 | 11.92546 | 121.95576 | 22 ft | 55 kts | 63° |
| 2026-05-08 08:35 | 11.92647 | 121.95778 | 24 ft | 41 kts | 63° |
| 2026-05-08 08:35 | 11.92790 | 121.96063 | 24 ft | 23 kts | 61° |
| 2026-05-08 08:35 | 11.92789 | 121.96128 | 23 ft | 14 kts | 155° |
| 2026-05-08 08:35 | 11.92696 | 121.96176 | 22 ft | 15 kts | 153° |
| 2026-05-08 08:36 | 11.92597 | 121.96213 | 23 ft | 11 kts | 152° |
| 2026-05-08 08:36 | 11.92528 | 121.96249 | 23 ft | 11 kts | 153° |
| 2026-05-08 08:36 | 11.92459 | 121.96284 | 22 ft | 9 kts | 152° |
| 2026-05-08 08:36 | 11.92460 | 121.96301 | 22 ft | 6 kts | 40° |